Time;durP1;ratioP1;P1;durP2;ratioP2;P2;SDS_P1;SDS_P2;PMS_P1;PMS_P2;Temp;Humidity;BMP_temperature;BMP_pressure;BME280_temperature;BME280_humidity;BME280_pressure;Samples;Min_cycle;Max_cycle;Signal;HPM_P1;HPM_P2
2022/07/09 00:01:57;;;;;;;;;;;16.00;99.90;;;;;;4785147;29;19954;-72
2022/07/09 00:04:23;;;;;;;;;;;16.00;99.90;;;;;;4802517;29;19925;-72
2022/07/09 00:06:48;;;;;;;;;;;16.00;99.90;;;;;;4801744;29;19936;-73
2022/07/09 00:09:14;;;;;;;;;;;15.90;99.90;;;;;;4802211;29;19975;-70
2022/07/09 00:11:39;;;;;;;;;;;15.90;99.90;;;;;;4771649;30;20380;-70
2022/07/09 00:14:05;;;;;;;;;;;15.90;99.90;;;;;;4802102;29;20016;-70
2022/07/09 00:16:30;;;;;;;;;;;15.90;99.90;;;;;;4786670;30;19979;-71
2022/07/09 00:18:56;;;;;;;;;;;15.90;99.90;;;;;;4787572;29;20008;-72
2022/07/09 00:21:21;;;;;;;;;;;15.90;99.90;;;;;;4788134;29;19929;-71
2022/07/09 00:23:47;;;;;;;;;;;15.80;99.90;;;;;;4802095;29;19926;-70
2022/07/09 00:26:12;;;;;;;;;;;15.80;99.90;;;;;;4788033;29;20395;-72
2022/07/09 00:28:38;;;;;;;;;;;15.80;99.90;;;;;;4801770;29;19926;-71
2022/07/09 00:31:03;;;;;;;;;;;15.70;99.90;;;;;;4805017;29;19925;-72
2022/07/09 00:33:29;;;;;;;;;;;15.70;99.90;;;;;;4804580;29;19932;-71
2022/07/09 00:35:54;;;;;;;;;;;15.60;99.90;;;;;;4805569;29;19926;-72
2022/07/09 00:38:20;;;;;;;;;;;15.70;99.90;;;;;;4791557;30;19932;-70
2022/07/09 00:40:45;;;;;;;;;;;15.60;99.90;;;;;;4805272;29;19926;-70
2022/07/09 00:43:21;;;;;;;;;;;15.50;99.90;;;;;;4805407;29;20276;-72
2022/07/09 00:45:47;;;;;;;;;;;15.60;99.90;;;;;;4805009;29;19933;-70
2022/07/09 00:48:12;;;;;;;;;;;15.60;99.90;;;;;;4790979;29;19929;-72
2022/07/09 00:50:39;;;;;;;;;;;15.60;99.90;;;;;;4791254;30;19932;-70
2022/07/09 00:53:06;;;;;;;;;;;15.70;99.90;;;;;;4805005;29;20406;-72
2022/07/09 00:55:32;;;;;;;;;;;15.60;99.90;;;;;;4791217;29;19929;-72
2022/07/09 00:57:57;;;;;;;;;;;15.60;99.90;;;;;;4791495;29;19972;-72
2022/07/09 01:00:23;;;;;;;;;;;15.60;99.90;;;;;;4790062;30;19965;-71
2022/07/09 01:02:49;;;;;;;;;;;15.60;99.90;;;;;;4789491;29;19932;-70
2022/07/09 01:05:14;;;;;;;;;;;15.60;99.90;;;;;;4805091;29;19955;-72
2022/07/09 01:07:40;;;;;;;;;;;15.50;99.90;;;;;;4804750;29;19926;-73
2022/07/09 01:10:06;;;;;;;;;;;15.50;99.90;;;;;;4775031;30;19932;-71
2022/07/09 01:12:31;;;;;;;;;;;15.40;99.90;;;;;;4790911;29;20025;-70
2022/07/09 01:14:57;;;;;;;;;;;15.40;99.90;;;;;;4804809;29;20012;-71
2022/07/09 01:17:22;;;;;;;;;;;15.40;99.90;;;;;;4804072;29;19959;-72
2022/07/09 01:19:48;;;;;;;;;;;15.30;99.90;;;;;;4804791;29;19980;-71
2022/07/09 01:22:13;;;;;;;;;;;15.30;99.90;;;;;;4789905;29;19926;-71
2022/07/09 01:24:39;;;;;;;;;;;15.30;99.90;;;;;;4804737;29;19981;-72
2022/07/09 01:27:05;;;;;;;;;;;15.20;99.90;;;;;;4790694;29;20017;-72
2022/07/09 01:29:30;;;;;;;;;;;15.20;99.90;;;;;;4804639;29;19936;-71
2022/07/09 01:31:56;;;;;;;;;;;15.30;99.90;;;;;;4773963;30;19932;-70
2022/07/09 01:34:21;;;;;;;;;;;15.30;99.90;;;;;;4790789;30;19926;-72
2022/07/09 01:36:47;;;;;;;;;;;15.30;99.90;;;;;;4804081;29;19932;-70
2022/07/09 01:39:12;;;;;;;;;;;15.30;99.90;;;;;;4804557;29;19929;-72
2022/07/09 01:41:38;;;;;;;;;;;15.40;99.90;;;;;;4803409;29;19972;-70
2022/07/09 01:44:04;;;;;;;;;;;15.50;99.90;;;;;;4804450;29;19925;-70
2022/07/09 01:46:29;;;;;;;;;;;15.50;99.90;;;;;;4774649;29;20303;-72
2022/07/09 01:48:55;;;;;;;;;;;15.50;99.90;;;;;;4789888;29;19928;-71
2022/07/09 01:51:21;;;;;;;;;;;15.50;99.90;;;;;;4803987;29;19925;-72
2022/07/09 01:53:47;;;;;;;;;;;15.50;99.90;;;;;;4803817;29;19922;-71
2022/07/09 01:56:13;;;;;;;;;;;15.50;99.90;;;;;;4790329;30;19925;-72
2022/07/09 01:58:38;;;;;;;;;;;15.50;99.90;;;;;;4773858;29;20379;-70
2022/07/09 02:01:04;;;;;;;;;;;15.60;99.90;;;;;;4790288;29;20019;-70
2022/07/09 02:03:30;;;;;;;;;;;15.60;99.90;;;;;;4803207;29;20404;-73
2022/07/09 02:05:56;;;;;;;;;;;15.60;99.90;;;;;;4790278;30;19937;-70
2022/07/09 02:08:22;;;;;;;;;;;15.60;99.90;;;;;;4789813;29;19925;-71
2022/07/09 02:10:48;;;;;;;;;;;15.60;99.90;;;;;;4789931;29;19926;-71
2022/07/09 02:13:13;;;;;;;;;;;15.60;99.90;;;;;;4773824;30;19974;-73
2022/07/09 02:15:39;;;;;;;;;;;15.60;99.90;;;;;;4789838;29;20005;-70
2022/07/09 02:18:04;;;;;;;;;;;15.60;99.90;;;;;;4803167;29;19921;-70
2022/07/09 02:20:30;;;;;;;;;;;15.70;99.90;;;;;;4803407;29;19927;-70
2022/07/09 02:22:55;;;;;;;;;;;15.60;99.90;;;;;;4788654;30;19943;-72
2022/07/09 02:25:21;;;;;;;;;;;15.70;99.90;;;;;;4804064;29;19925;-73
2022/07/09 02:27:47;;;;;;;;;;;15.60;99.90;;;;;;4803506;29;20372;-72
2022/07/09 02:30:13;;;;;;;;;;;15.60;99.90;;;;;;4803927;29;19929;-72
2022/07/09 02:32:39;;;;;;;;;;;15.60;99.90;;;;;;4803053;29;20386;-72
2022/07/09 02:35:05;;;;;;;;;;;15.60;99.90;;;;;;4804207;29;20316;-70
2022/07/09 02:37:31;;;;;;;;;;;15.60;99.90;;;;;;4773536;29;19925;-72
2022/07/09 02:39:57;;;;;;;;;;;15.50;99.90;;;;;;4789610;29;19934;-72
2022/07/09 02:42:22;;;;;;;;;;;15.50;99.90;;;;;;4803334;29;20393;-70
2022/07/09 02:44:48;;;;;;;;;;;15.60;99.90;;;;;;4803277;29;20025;-70
2022/07/09 02:47:13;;;;;;;;;;;15.50;99.90;;;;;;4802867;29;19972;-72
2022/07/09 02:49:39;;;;;;;;;;;15.60;99.90;;;;;;4788384;30;19925;-72
2022/07/09 02:52:06;;;;;;;;;;;15.50;99.90;;;;;;4803097;29;19925;-70
2022/07/09 02:54:32;;;;;;;;;;;15.50;99.90;;;;;;4802342;29;19926;-72
2022/07/09 02:56:57;;;;;;;;;;;15.50;99.90;;;;;;4803108;29;19925;-72
2022/07/09 02:59:23;;;;;;;;;;;15.50;99.90;;;;;;4803428;29;19976;-71
2022/07/09 03:01:49;;;;;;;;;;;15.50;99.90;;;;;;4802233;29;19930;-72
2022/07/09 03:04:14;;;;;;;;;;;15.50;99.90;;;;;;4802808;29;19922;-72
2022/07/09 03:06:39;;;;;;;;;;;15.50;99.90;;;;;;4787517;29;19922;-71
2022/07/09 03:09:06;;;;;;;;;;;15.50;99.90;;;;;;4802725;29;19929;-71
2022/07/09 03:11:31;;;;;;;;;;;15.50;99.90;;;;;;4802396;29;19925;-72
2022/07/09 03:13:57;;;;;;;;;;;15.60;99.90;;;;;;4802619;29;19943;-70
2022/07/09 03:16:22;;;;;;;;;;;15.60;99.90;;;;;;4803004;29;19926;-70
2022/07/09 03:18:48;;;;;;;;;;;15.60;99.90;;;;;;4801951;29;20004;-71
2022/07/09 03:21:13;;;;;;;;;;;15.60;99.90;;;;;;4802488;29;19981;-71
2022/07/09 03:23:42;;;;;;;;;;;15.60;99.90;;;;;;4802446;29;19948;-69
2022/07/09 03:26:07;;;;;;;;;;;15.60;99.90;;;;;;4802357;29;20051;-71
2022/07/09 03:28:33;;;;;;;;;;;15.60;99.90;;;;;;4802610;29;19964;-71
2022/07/09 03:30:59;;;;;;;;;;;15.60;99.90;;;;;;4788598;29;19982;-72
2022/07/09 03:33:24;;;;;;;;;;;15.60;99.90;;;;;;4798586;29;19930;-71
2022/07/09 03:35:50;;;;;;;;;;;15.60;99.90;;;;;;4784316;29;19952;-72
2022/07/09 03:38:15;;;;;;;;;;;15.60;99.90;;;;;;4799424;29;19926;-69
2022/07/09 03:40:41;;;;;;;;;;;15.60;99.90;;;;;;4799435;29;20044;-69
2022/07/09 03:43:06;;;;;;;;;;;15.60;99.90;;;;;;4799378;29;20029;-71
2022/07/09 03:45:32;;;;;;;;;;;15.50;99.90;;;;;;4769751;30;20461;-70
2022/07/09 03:47:57;;;;;;;;;;;15.60;99.90;;;;;;4770118;30;19925;-71
2022/07/09 03:50:48;;;;;;;;;;;15.50;99.90;;;;;;4799029;29;19931;-70
2022/07/09 03:53:14;;;;;;;;;;;15.50;99.90;;;;;;4784028;30;19933;-71
2022/07/09 03:55:39;;;;;;;;;;;15.50;99.90;;;;;;4770815;30;19922;-69
2022/07/09 03:58:05;;;;;;;;;;;15.60;99.90;;;;;;4798740;29;19922;-70
2022/07/09 04:00:30;;;;;;;;;;;15.50;99.90;;;;;;4798705;29;19928;-71
2022/07/09 04:02:56;;;;;;;;;;;15.50;99.90;;;;;;4783500;29;19929;-69
2022/07/09 04:05:21;;;;;;;;;;;15.50;99.90;;;;;;4798508;29;19922;-72
2022/07/09 04:07:47;;;;;;;;;;;15.60;99.90;;;;;;4798836;29;19922;-71
2022/07/09 04:10:12;;;;;;;;;;;15.60;99.90;;;;;;4799440;29;19988;-72
2022/07/09 04:12:38;;;;;;;;;;;15.60;99.90;;;;;;4768688;30;20016;-70
2022/07/09 04:15:04;;;;;;;;;;;15.60;99.90;;;;;;4799064;29;20022;-69
2022/07/09 04:17:29;;;;;;;;;;;15.60;99.90;;;;;;4798594;29;19926;-70
2022/07/09 04:19:55;;;;;;;;;;;15.70;99.90;;;;;;4799472;29;19932;-72
2022/07/09 04:22:20;;;;;;;;;;;15.70;99.90;;;;;;4770173;30;20036;-69
2022/07/09 04:24:46;;;;;;;;;;;15.70;99.90;;;;;;4799013;29;19932;-71
2022/07/09 04:27:11;;;;;;;;;;;15.70;99.90;;;;;;4783800;29;19932;-72
2022/07/09 04:29:37;;;;;;;;;;;15.80;99.90;;;;;;4770077;30;19975;-70
2022/07/09 04:32:02;;;;;;;;;;;16.00;99.90;;;;;;4784785;29;20390;-71
2022/07/09 04:34:28;;;;;;;;;;;15.80;99.90;;;;;;4787912;30;19955;-72
2022/07/09 04:36:53;;;;;;;;;;;15.90;99.90;;;;;;4801578;29;20013;-70
2022/07/09 04:39:19;;;;;;;;;;;15.90;99.90;;;;;;4801465;29;19928;-74
2022/07/09 04:41:45;;;;;;;;;;;15.90;99.90;;;;;;4802020;29;19922;-72
2022/07/09 04:44:15;;;;;;;;;;;16.00;99.90;;;;;;4788093;30;19922;-72
2022/07/09 04:46:41;;;;;;;;;;;16.00;99.90;;;;;;4801950;29;19959;-73
2022/07/09 04:49:06;;;;;;;;;;;16.10;99.90;;;;;;4801865;29;19926;-73
2022/07/09 04:51:32;;;;;;;;;;;16.20;99.90;;;;;;4802467;29;20012;-73
2022/07/09 04:53:57;;;;;;;;;;;16.20;99.90;;;;;;4802032;29;19933;-71
2022/07/09 04:56:23;;;;;;;;;;;16.30;99.90;;;;;;4801459;29;20398;-74
2022/07/09 04:58:51;;;;;;;;;;;16.30;99.90;;;;;;4801602;29;19929;-74
2022/07/09 05:01:22;;;;;;;;;;;16.40;99.90;;;;;;4795166;29;19981;-71
2022/07/09 05:03:49;;;;;;;;;;;16.40;99.90;;;;;;4805494;29;19948;-71
2022/07/09 05:06:14;;;;;;;;;;;16.50;99.90;;;;;;4804316;29;19936;-71
2022/07/09 05:08:40;;;;;;;;;;;16.50;99.90;;;;;;4789559;29;19929;-73
2022/07/09 05:11:05;;;;;;;;;;;16.50;99.90;;;;;;4789219;29;19933;-71
2022/07/09 05:13:31;;;;;;;;;;;16.60;99.90;;;;;;4789570;29;19933;-74
2022/07/09 05:15:57;;;;;;;;;;;16.60;99.90;;;;;;4789535;29;19932;-74
2022/07/09 05:18:22;;;;;;;;;;;16.60;99.90;;;;;;4792835;29;20011;-73
2022/07/09 05:20:48;;;;;;;;;;;16.60;99.90;;;;;;4792904;29;20371;-74
2022/07/09 05:23:13;;;;;;;;;;;16.60;99.90;;;;;;4793068;29;19932;-74
2022/07/09 05:25:38;;;;;;;;;;;16.70;99.90;;;;;;4808846;29;20379;-73
2022/07/09 05:28:04;;;;;;;;;;;16.70;99.90;;;;;;4792281;29;19925;-72
2022/07/09 05:30:30;;;;;;;;;;;16.70;99.90;;;;;;4792670;29;19945;-70
2022/07/09 05:32:55;;;;;;;;;;;16.70;99.90;;;;;;4792241;29;19925;-71
2022/07/09 05:35:21;;;;;;;;;;;17.00;99.90;;;;;;4792599;29;20015;-69
2022/07/09 05:37:46;;;;;;;;;;;16.90;99.90;;;;;;4793055;29;19947;-69
2022/07/09 05:40:12;;;;;;;;;;;17.00;99.90;;;;;;4808755;29;20493;-71
2022/07/09 05:42:38;;;;;;;;;;;17.20;99.90;;;;;;4792139;29;20016;-73
2022/07/09 05:45:04;;;;;;;;;;;17.50;99.90;;;;;;4792559;29;19925;-74
2022/07/09 05:47:29;;;;;;;;;;;17.70;99.90;;;;;;4792380;29;19932;-73
2022/07/09 05:49:55;;;;;;;;;;;17.90;99.90;;;;;;4791942;29;20012;-72
2022/07/09 05:52:20;;;;;;;;;;;18.00;99.90;;;;;;4791909;29;19932;-71
2022/07/09 05:54:46;;;;;;;;;;;18.20;99.90;;;;;;4792816;29;19925;-72
2022/07/09 05:57:11;;;;;;;;;;;18.20;99.90;;;;;;4808614;29;19925;-74
2022/07/09 05:59:37;;;;;;;;;;;18.20;99.90;;;;;;4792083;29;19925;-72
2022/07/09 06:02:05;;;;;;;;;;;18.20;99.90;;;;;;4791693;29;19936;-73
2022/07/09 06:04:30;;;;;;;;;;;18.10;99.90;;;;;;4792566;29;19924;-72
2022/07/09 06:06:56;;;;;;;;;;;18.10;99.90;;;;;;4791725;29;20374;-71
2022/07/09 06:09:21;;;;;;;;;;;18.00;99.90;;;;;;4808335;29;19974;-73
2022/07/09 06:11:47;;;;;;;;;;;18.10;99.90;;;;;;4791882;29;20302;-74
2022/07/09 06:14:12;;;;;;;;;;;18.10;99.90;;;;;;4808108;29;19977;-72
2022/07/09 06:16:38;;;;;;;;;;;18.20;99.90;;;;;;4807477;29;19925;-73
2022/07/09 06:19:03;;;;;;;;;;;18.30;99.90;;;;;;4791741;29;19936;-71
2022/07/09 06:21:29;;;;;;;;;;;18.50;99.90;;;;;;4791575;29;20008;-72
2022/07/09 06:23:54;;;;;;;;;;;18.60;99.90;;;;;;4791839;29;19921;-71
2022/07/09 06:26:19;;;;;;;;;;;18.70;99.90;;;;;;4791578;29;20439;-74
2022/07/09 06:28:46;;;;;;;;;;;18.70;99.90;;;;;;4791452;29;19928;-73
2022/07/09 06:31:11;;;;;;;;;;;18.60;99.90;;;;;;4791289;29;19925;-73
2022/07/09 06:34:03;;;;;;;;;;;18.60;99.90;;;;;;4790658;29;20042;-72
2022/07/09 06:36:29;;;;;;;;;;;18.60;99.90;;;;;;4808109;29;19985;-71
2022/07/09 06:41:38;;;;;;;;;;;18.50;99.90;;;;;;4791174;29;19928;-74
2022/07/09 06:44:04;;;;;;;;;;;18.50;99.90;;;;;;4807389;29;20015;-75
2022/07/09 06:46:29;;;;;;;;;;;18.50;99.90;;;;;;4791074;29;19928;-72
2022/07/09 06:48:55;;;;;;;;;;;18.50;99.90;;;;;;4790911;29;19983;-74
2022/07/09 06:51:20;;;;;;;;;;;18.50;99.90;;;;;;4791242;29;19925;-69
2022/07/09 06:53:46;;;;;;;;;;;18.50;99.90;;;;;;4807340;29;20405;-71
2022/07/09 06:56:11;;;;;;;;;;;18.40;99.90;;;;;;4791389;29;19932;-70
2022/07/09 06:58:37;;;;;;;;;;;18.40;99.90;;;;;;4790758;29;20374;-71
2022/07/09 07:01:02;;;;;;;;;;;18.40;99.90;;;;;;4791215;29;20023;-72
2022/07/09 07:03:28;;;;;;;;;;;18.40;99.90;;;;;;4790574;29;20393;-70
2022/07/09 07:05:53;;;;;;;;;;;18.40;99.90;;;;;;4791086;29;19925;-70
2022/07/09 07:08:19;;;;;;;;;;;18.50;99.90;;;;;;4790853;29;19926;-72
2022/07/09 07:10:44;;;;;;;;;;;18.40;99.90;;;;;;4807832;29;19925;-73
2022/07/09 07:13:10;;;;;;;;;;;18.50;99.90;;;;;;4790850;29;19932;-73
2022/07/09 07:15:36;;;;;;;;;;;18.50;99.90;;;;;;4791093;29;19956;-70
2022/07/09 07:18:02;;;;;;;;;;;18.70;99.90;;;;;;4790369;29;19975;-73
2022/07/09 07:20:27;;;;;;;;;;;18.80;99.90;;;;;;4807057;29;19927;-73
2022/07/09 07:22:53;;;;;;;;;;;18.90;99.90;;;;;;4790501;29;20370;-70
2022/07/09 07:25:18;;;;;;;;;;;19.00;99.90;;;;;;4790462;29;20019;-72
2022/07/09 07:27:44;;;;;;;;;;;19.10;99.90;;;;;;4790932;29;19925;-72
2022/07/09 07:30:09;;;;;;;;;;;19.10;99.90;;;;;;4790415;29;20375;-72
2022/07/09 07:32:35;;;;;;;;;;;19.20;99.90;;;;;;4786673;30;19925;-72
2022/07/09 07:35:02;;;;;;;;;;;19.20;99.90;;;;;;4788683;29;19958;-73
2022/07/09 07:37:28;;;;;;;;;;;19.00;99.90;;;;;;4789052;29;19921;-70
2022/07/09 07:39:54;;;;;;;;;;;19.10;99.90;;;;;;4787177;29;20390;-72
2022/07/09 07:42:19;;;;;;;;;;;18.90;99.90;;;;;;4787419;30;19936;-70
2022/07/09 07:44:45;;;;;;;;;;;18.80;99.90;;;;;;4788632;29;19925;-71
2022/07/09 07:47:10;;;;;;;;;;;18.70;99.90;;;;;;4787412;30;20260;-73
2022/07/09 07:49:36;;;;;;;;;;;18.80;99.90;;;;;;4787447;29;19926;-74
2022/07/09 07:52:01;;;;;;;;;;;18.70;99.90;;;;;;4787768;29;19925;-74
2022/07/09 07:54:27;;;;;;;;;;;18.60;99.90;;;;;;4787062;29;19921;-73
2022/07/09 07:56:52;;;;;;;;;;;18.70;99.90;;;;;;4786991;29;19928;-73
2022/07/09 07:59:18;;;;;;;;;;;18.80;99.90;;;;;;4787480;29;19978;-73
2022/07/09 08:01:43;;;;;;;;;;;18.80;99.90;;;;;;4787714;29;20380;-71
2022/07/09 08:04:09;;;;;;;;;;;18.80;99.90;;;;;;4788440;29;19932;-72
2022/07/09 08:06:35;;;;;;;;;;;18.90;99.90;;;;;;4802226;29;19968;-70
2022/07/09 08:09:01;;;;;;;;;;;18.90;99.90;;;;;;4801787;29;19932;-71
2022/07/09 08:11:26;;;;;;;;;;;18.90;99.90;;;;;;4788439;29;20326;-71
2022/07/09 08:13:52;;;;;;;;;;;19.10;99.90;;;;;;4788004;29;19941;-73
2022/07/09 08:16:18;;;;;;;;;;;19.40;99.90;;;;;;4786936;29;20239;-71
2022/07/09 08:18:44;;;;;;;;;;;19.60;99.90;;;;;;4786611;29;20007;-74
2022/07/09 08:21:09;;;;;;;;;;;19.90;99.90;;;;;;4786796;30;19932;-73
2022/07/09 08:23:51;;;;;;;;;;;20.00;99.90;;;;;;4787045;29;20054;-72
2022/07/09 08:26:26;;;;;;;;;;;20.20;99.90;;;;;;4787576;29;19932;-74
2022/07/09 08:28:52;;;;;;;;;;;20.30;99.90;;;;;;4801632;29;19974;-71
2022/07/09 08:31:18;;;;;;;;;;;20.40;99.90;;;;;;4801784;29;19926;-72
2022/07/09 08:33:44;;;;;;;;;;;20.30;99.90;;;;;;4801999;29;20272;-73
2022/07/09 08:36:10;;;;;;;;;;;20.40;99.90;;;;;;4789737;29;19925;-73
2022/07/09 08:38:35;;;;;;;;;;;20.50;99.90;;;;;;4804659;29;19978;-72
2022/07/09 08:41:03;;;;;;;;;;;20.60;99.90;;;;;;4805836;29;19944;-73
2022/07/09 08:43:29;;;;;;;;;;;20.80;99.90;;;;;;4805805;29;19925;-74
2022/07/09 08:45:56;;;;;;;;;;;21.00;99.90;;;;;;4806219;29;19982;-72
2022/07/09 08:48:21;;;;;;;;;;;21.00;99.90;;;;;;4804262;29;19925;-74
2022/07/09 08:50:50;;;;;;;;;;;21.20;99.90;;;;;;4805429;29;20340;-72
2022/07/09 08:53:17;;;;;;;;;;;21.40;99.90;;;;;;4793175;29;19936;-74
2022/07/09 08:55:42;;;;;;;;;;;21.60;99.90;;;;;;4809326;29;19932;-74
2022/07/09 08:58:09;;;;;;;;;;;21.70;99.90;;;;;;4792827;29;19925;-75
2022/07/09 09:00:35;;;;;;;;;;;22.00;99.90;;;;;;4793275;29;19989;-74
2022/07/09 09:03:00;;;;;;;;;;;22.10;99.90;;;;;;4792437;29;20363;-75
2022/07/09 09:05:26;;;;;;;;;;;22.20;99.90;;;;;;4792928;29;19928;-74
2022/07/09 09:07:51;;;;;;;;;;;22.00;99.90;;;;;;4809073;29;19925;-72
2022/07/09 09:10:24;;;;;;;;;;;22.00;99.90;;;;;;4793469;29;20376;-73
2022/07/09 09:12:55;;;;;;;;;;;22.10;99.90;;;;;;4793273;29;20332;-72
2022/07/09 09:15:20;;;;;;;;;;;22.00;99.90;;;;;;4793203;29;19925;-73
2022/07/09 09:17:46;;;;;;;;;;;21.90;99.90;;;;;;4792042;29;20035;-71
2022/07/09 09:20:12;;;;;;;;;;;21.70;99.90;;;;;;4793056;29;19921;-75
2022/07/09 09:22:44;;;;;;;;;;;21.70;99.90;;;;;;4807488;29;19921;-73
2022/07/09 09:25:14;;;;;;;;;;;21.50;99.90;;;;;;4807661;29;20069;-73
2022/07/09 09:27:40;;;;;;;;;;;21.20;99.90;;;;;;4808822;29;19932;-73
2022/07/09 09:30:09;;;;;;;;;;;21.10;99.90;;;;;;4809014;29;19925;-71
2022/07/09 09:32:34;;;;;;;;;;;20.90;99.90;;;;;;4808118;29;19932;-73
2022/07/09 09:35:02;;;;;;;;;;;20.80;99.90;;;;;;4793521;29;19933;-72
2022/07/09 09:37:28;;;;;;;;;;;20.60;99.90;;;;;;4792733;29;19925;-73
2022/07/09 09:39:54;;;;;;;;;;;20.80;99.90;;;;;;4792569;29;19925;-74
2022/07/09 09:42:22;;;;;;;;;;;21.10;99.90;;;;;;4792570;29;19925;-73
2022/07/09 09:44:49;;;;;;;;;;;21.30;99.90;;;;;;4792272;29;19921;-74
2022/07/09 09:47:16;;;;;;;;;;;21.50;99.90;;;;;;4791614;29;20435;-73
2022/07/09 09:49:42;;;;;;;;;;;21.60;99.90;;;;;;4792243;29;19921;-74
2022/07/09 09:52:09;;;;;;;;;;;21.70;99.90;;;;;;4792219;29;20028;-73
2022/07/09 09:54:39;;;;;;;;;;;21.80;99.90;;;;;;4792079;29;19925;-73
2022/07/09 09:57:05;;;;;;;;;;;21.90;99.90;;;;;;4792133;29;19985;-74
2022/07/09 09:59:31;;;;;;;;;;;22.00;99.90;;;;;;4808255;29;20332;-73
2022/07/09 10:01:57;;;;;;;;;;;22.10;99.90;;;;;;4791245;29;19932;-70
2022/07/09 10:04:25;;;;;;;;;;;21.80;99.90;;;;;;4792383;29;19929;-72
2022/07/09 10:06:50;;;;;;;;;;;22.10;99.90;;;;;;4792083;29;19925;-72
2022/07/09 10:09:16;;;;;;;;;;;22.10;99.90;;;;;;4792534;29;19933;-73
2022/07/09 10:11:41;;;;;;;;;;;22.20;99.90;;;;;;4791770;29;19964;-72
2022/07/09 10:14:07;;;;;;;;;;;22.30;99.90;;;;;;4808303;29;19978;-74
2022/07/09 10:16:36;;;;;;;;;;;22.30;99.90;;;;;;4791447;29;19952;-73
2022/07/09 10:19:02;;;;;;;;;;;22.30;99.90;;;;;;4791606;29;19970;-73
2022/07/09 10:21:34;;;;;;;;;;;22.30;99.90;;;;;;4791444;29;19925;-74
2022/07/09 10:23:59;;;;;;;;;;;22.40;99.90;;;;;;4791511;29;19980;-71
2022/07/09 10:26:38;;;;;;;;;;;22.10;99.90;;;;;;4807997;29;19968;-72
2022/07/09 10:29:17;;;;;;;;;;;22.20;99.90;;;;;;4806777;29;19931;-71
2022/07/09 10:31:43;;;;;;;;;;;22.20;99.90;;;;;;4791667;29;20322;-69
2022/07/09 10:34:14;;;;;;;;;;;22.40;99.90;;;;;;4791202;29;19925;-70
2022/07/09 10:36:39;;;;;;;;;;;22.50;99.90;;;;;;4807789;29;19979;-73
2022/07/09 10:39:11;;;;;;;;;;;22.60;99.90;;;;;;4791320;29;19964;-72
2022/07/09 10:41:37;;;;;;;;;;;22.70;99.90;;;;;;4806120;29;19974;-73
2022/07/09 10:44:02;;;;;;;;;;;22.60;99.90;;;;;;4807806;29;20378;-71
2022/07/09 10:46:28;;;;;;;;;;;22.40;99.90;;;;;;4791505;29;19925;-71
2022/07/09 10:48:58;;;;;;;;;;;22.40;99.90;;;;;;4806957;29;19932;-72
2022/07/09 10:51:24;;;;;;;;;;;22.60;99.90;;;;;;4791736;29;20302;-71
2022/07/09 10:53:50;;;;;;;;;;;22.50;99.90;;;;;;4807484;29;19925;-70
2022/07/09 10:56:19;;;;;;;;;;;22.50;99.90;;;;;;4807715;29;19929;-71
2022/07/09 10:58:48;;;;;;;;;;;22.40;99.90;;;;;;4790836;29;20002;-70
2022/07/09 11:01:24;;;;;;;;;;;22.40;99.90;;;;;;4791292;29;19928;-71
2022/07/09 11:03:50;;;;;;;;;;;22.30;99.90;;;;;;4806942;29;19924;-73
2022/07/09 11:06:16;;;;;;;;;;;22.10;99.90;;;;;;4806251;29;20303;-73
2022/07/09 11:08:42;;;;;;;;;;;22.10;99.90;;;;;;4807162;29;19925;-70
2022/07/09 11:11:07;;;;;;;;;;;21.90;99.90;;;;;;4790817;29;19925;-70
2022/07/09 11:13:33;;;;;;;;;;;21.70;99.90;;;;;;4806462;29;19929;-70
2022/07/09 11:15:59;;;;;;;;;;;21.50;99.90;;;;;;4790401;29;20371;-73
2022/07/09 11:18:26;;;;;;;;;;;21.50;99.90;;;;;;4790504;29;19925;-72
2022/07/09 11:20:52;;;;;;;;;;;21.60;99.90;;;;;;4807203;29;19925;-73
2022/07/09 11:23:20;;;;;;;;;;;21.70;99.90;;;;;;4806860;29;20291;-74
2022/07/09 11:25:48;;;;;;;;;;;21.90;99.90;;;;;;4806816;29;19921;-73
2022/07/09 11:28:24;;;;;;;;;;;22.10;99.90;;;;;;4790361;29;19944;-71
2022/07/09 11:31:03;;;;;;;;;;;22.20;99.90;;;;;;4790471;29;20401;-73
2022/07/09 11:34:10;;;;;;;;;;;22.50;99.90;;;;;;4805798;29;19925;-72
2022/07/09 11:36:14;;;;;;;;;;;22.30;99.90;;;;;;4790146;29;19929;-72
2022/07/09 11:38:47;;;;;;;;;;;22.40;99.90;;;;;;4806644;29;19925;-72
2022/07/09 11:41:12;;;;;;;;;;;22.40;99.90;;;;;;4790339;29;20424;-73
2022/07/09 11:43:38;;;;;;;;;;;22.70;99.90;;;;;;4806604;29;19925;-74
2022/07/09 11:46:03;;;;;;;;;;;22.90;99.90;;;;;;4790360;29;19964;-73
2022/07/09 11:48:29;;;;;;;;;;;22.90;99.90;;;;;;4805775;29;20017;-73
2022/07/09 11:50:54;;;;;;;;;;;22.90;99.90;;;;;;4790004;29;20030;-72
2022/07/09 11:53:21;;;;;;;;;;;23.00;99.90;;;;;;4789859;29;20313;-72
2022/07/09 11:55:57;;;;;;;;;;;23.00;99.90;;;;;;4790346;29;19921;-74
2022/07/09 12:02:03;;;;;;;;;;;22.50;99.90;;;;;;4805786;29;19966;-74
2022/07/09 12:04:30;;;;;;;;;;;22.40;99.90;;;;;;4790256;29;19925;-75
2022/07/09 12:06:56;;;;;;;;;;;22.40;99.90;;;;;;4789765;29;19925;-71
2022/07/09 12:09:29;;;;;;;;;;;22.40;99.90;;;;;;4804878;29;20016;-72
2022/07/09 12:11:55;;;;;;;;;;;22.60;99.90;;;;;;4805981;29;19925;-73
2022/07/09 12:14:20;;;;;;;;;;;22.70;99.90;;;;;;4806254;29;20356;-73
2022/07/09 12:16:46;;;;;;;;;;;22.80;99.90;;;;;;4789635;29;19976;-71
2022/07/09 12:19:11;;;;;;;;;;;22.80;99.90;;;;;;4789595;29;19925;-73
2022/07/09 12:21:37;;;;;;;;;;;22.90;99.90;;;;;;4789915;29;19958;-71
2022/07/09 12:24:02;;;;;;;;;;;22.60;99.90;;;;;;4789899;29;20082;-70
2022/07/09 12:26:30;;;;;;;;;;;22.40;99.90;;;;;;4792071;29;20030;-73
2022/07/09 12:28:56;;;;;;;;;;;22.40;99.90;;;;;;4793718;29;19925;-71
2022/07/09 12:31:21;;;;;;;;;;;22.40;99.90;;;;;;4793604;29;19932;-71
2022/07/09 12:33:47;;;;;;;;;;;22.50;99.90;;;;;;4809363;29;19961;-72
2022/07/09 12:36:12;;;;;;;;;;;22.50;99.90;;;;;;4793854;29;20186;-72
2022/07/09 12:38:38;;;;;;;;;;;22.60;99.90;;;;;;4793328;29;19925;-71
2022/07/09 12:41:03;;;;;;;;;;;22.60;99.90;;;;;;4793074;29;19964;-73
2022/07/09 12:43:29;;;;;;;;;;;22.60;99.90;;;;;;4793462;29;20378;-74
2022/07/09 12:45:54;;;;;;;;;;;22.50;99.90;;;;;;4809349;29;19928;-71
2022/07/09 12:48:20;;;;;;;;;;;22.60;99.90;;;;;;4792723;29;19925;-73
2022/07/09 12:50:47;;;;;;;;;;;22.50;99.40;;;;;;4793306;29;21873;-73
2022/07/09 12:53:12;;;;;;;;;;;22.60;99.90;;;;;;4793328;29;20302;-71
2022/07/09 12:55:38;;;;;;;;;;;22.70;99.90;;;;;;4793282;29;19925;-73
2022/07/09 12:58:03;;;;;;;;;;;22.40;91.10;;;;;;4792852;29;19928;-71
2022/07/09 13:00:29;;;;;;;;;;;22.50;98.00;;;;;;4809410;29;20298;-73
2022/07/09 13:02:54;;;;;;;;;;;22.60;99.90;;;;;;4792642;29;19994;-71
2022/07/09 13:05:20;;;;;;;;;;;22.70;99.90;;;;;;4792852;29;20255;-71
2022/07/09 13:07:45;;;;;;;;;;;22.70;99.90;;;;;;4792849;29;19932;-73
2022/07/09 13:10:11;;;;;;;;;;;22.80;99.90;;;;;;4792751;29;20397;-73
2022/07/09 13:12:37;;;;;;;;;;;22.80;99.90;;;;;;4792890;29;19929;-71
2022/07/09 13:15:02;;;;;;;;;;;22.70;99.10;;;;;;4793017;29;20364;-72
2022/07/09 13:17:28;;;;;;;;;;;22.90;99.90;;;;;;4792163;29;19931;-71
2022/07/09 13:19:53;;;;;;;;;;;22.90;99.90;;;;;;4792959;29;19965;-72
2022/07/09 13:22:19;;;;;;;;;;;23.00;99.90;;;;;;4792482;29;20355;-71
2022/07/09 13:24:44;;;;;;;;;;;22.60;92.00;;;;;;4792936;29;20351;-73
2022/07/09 13:27:10;;;;;;;;;;;22.30;94.10;;;;;;4792588;29;19925;-72
2022/07/09 13:29:36;;;;;;;;;;;22.10;99.90;;;;;;4792751;29;19929;-73
2022/07/09 13:32:02;;;;;;;;;;;21.90;99.70;;;;;;4791817;29;19925;-73
2022/07/09 13:34:28;;;;;;;;;;;21.80;99.90;;;;;;4792436;29;19929;-75
2022/07/09 13:36:53;;;;;;;;;;;22.10;99.90;;;;;;4791707;29;19925;-71
2022/07/09 13:39:19;;;;;;;;;;;22.30;99.90;;;;;;4792611;29;19925;-73
2022/07/09 13:41:45;;;;;;;;;;;22.60;99.90;;;;;;4792182;29;19927;-70
2022/07/09 13:44:11;;;;;;;;;;;22.30;99.90;;;;;;4792568;29;19925;-72
2022/07/09 13:46:36;;;;;;;;;;;22.40;99.40;;;;;;4791616;29;20369;-71
2022/07/09 13:49:02;;;;;;;;;;;22.40;99.90;;;;;;4792354;29;19932;-71
2022/07/09 13:51:27;;;;;;;;;;;22.30;98.50;;;;;;4808320;29;19925;-72
2022/07/09 13:53:53;;;;;;;;;;;22.30;99.40;;;;;;4792241;29;20012;-73
2022/07/09 13:56:18;;;;;;;;;;;22.30;99.90;;;;;;4792364;29;19986;-71
2022/07/09 13:58:44;;;;;;;;;;;22.40;96.90;;;;;;4792156;29;20393;-71
2022/07/09 14:01:09;;;;;;;;;;;22.30;99.90;;;;;;4792015;29;19925;-71
2022/07/09 14:03:35;;;;;;;;;;;22.30;99.90;;;;;;4791321;29;20021;-73
2022/07/09 14:06:01;;;;;;;;;;;22.10;99.90;;;;;;4791676;29;20008;-73
2022/07/09 14:08:27;;;;;;;;;;;22.00;99.90;;;;;;4792216;29;19925;-70
2022/07/09 14:10:57;;;;;;;;;;;21.90;99.90;;;;;;4792231;29;20284;-73
2022/07/09 14:13:26;;;;;;;;;;;21.80;99.60;;;;;;4807018;29;19953;-71
2022/07/09 14:15:55;;;;;;;;;;;21.80;99.90;;;;;;4791931;29;20381;-72
2022/07/09 14:18:21;;;;;;;;;;;21.70;99.90;;;;;;4791812;29;20362;-73